• Join FlightAware (Why Join?)
  • Login
  • US Flag 
07:10AM EDT


 

Airport Tracker/Info


-or-


 

Live Flight TrackerFlight Track Log ✈ N675MC ✈ 14-Sep-2013 ✈ KATL - KLIT

Flight Track Log - Related Links

Times and Time Zones

All times are in EDT time to prevent confusion due to time zone crossing. See the N675MC flight status page for this flight to view local times or setup timezone preferences in your user account.

Time Position Orientation Groundspeed Altitude Reporting Facility
EDT Latitude Longitude Course Direction KTS MPH feet Rate Location/Type
02:57PM 33.6500 -84.3833 267° West 181 208 2,200  Level Atlanta TRACON
02:58PM 33.6833 -84.3167 59° Northeast 252 290 3,900 2,160 Climbing Atlanta TRACON
02:59PM 33.7333 -84.2833 29° Northeast 276 318 6,600 2,460 Climbing Atlanta TRACON
03:00PM 33.7289 -84.9654 268° West  Level Estimated
03:00PM 33.8000 -84.3167 337° Northwest 300 345 8,900  Level Atlanta TRACON
03:01PM 33.7237 -85.1025 267° West  Level FlightAware Approximate
03:02PM 33.7183 -85.2396 267° West  Level FlightAware Approximate
03:02PM 33.8139 -84.5814 274° West 336 387 13,300  Level Atlanta Center
03:03PM 33.7778 -84.6936 249° West 357 411 14,400 900 Climbing Atlanta Center
03:04PM 33.7481 -84.7883 249° West 357 411 15,200 900 Climbing Atlanta Center
03:05PM 33.7161 -84.9078 252° West 366 421 16,200 1,260 Climbing Atlanta Center
03:06PM 33.6797 -85.0275 250° West 376 433 17,800 1,620 Climbing Atlanta Center
03:07PM 33.6494 -85.1519 254° West 387 445 19,500 1,500 Climbing Atlanta Center
03:08PM 33.6336 -85.2864 262° West 401 461 20,800 1,260 Climbing Atlanta Center
03:09PM 33.6300 -85.4236 268° West 414 476 22,100 1,260 Climbing Atlanta Center
03:10PM 33.6344 -85.5658 272° West 421 484 23,400 1,260 Climbing Atlanta Center
03:11PM 33.6492 -85.7183 277° West 426 490 24,700 1,260 Climbing Atlanta Center
03:12PM 33.6597 -85.8558 275° West 426 490 26,000 1,200 Climbing Atlanta Center
03:13PM 33.6744 -85.9983 277° West 426 490 27,200 1,020 Climbing Atlanta Center
03:14PM 33.6781 -86.1431 272° West 431 496 28,100 360 Climbing Atlanta Center
03:15PM 33.6589 -86.2975 262° West 444 511 28,000 -60 Descending Atlanta Center
03:16PM 33.6453 -86.4517 264° West 463 533 28,000  Level Atlanta Center
03:17PM 33.6528 -86.6042 273° West 468 539 28,000  Level Atlanta Center
03:18PM 33.6703 -86.7594 278° West 463 533 28,000  Level Atlanta Center
03:19PM 33.6897 -86.9150 279° West 468 539 28,000  Level Atlanta Center
03:21PM 33.7156 -87.1381 278° West 478 550 28,000  Level Memphis Center
03:22PM 33.7547 -87.2867 288° West 478 550 28,000  Level Memphis Center
03:23PM 33.7836 -87.4406 283° West 478 550 28,000  Level Memphis Center
03:24PM 33.8208 -87.6094 285° West 473 544 28,000  Level Memphis Center
03:25PM 33.8553 -87.7558 286° West 468 539 28,000  Level Memphis Center
03:26PM 33.8878 -87.9100 284° West 468 539 28,000  Level Memphis Center
03:27PM 33.9156 -88.0594 283° West 468 539 28,000  Level Memphis Center
03:28PM 33.9389 -88.1989 281° West 473 544 28,000  Level Memphis Center
03:29PM 33.9750 -88.3508 286° West 473 544 28,000  Level Memphis Center
03:30PM 34.0125 -88.4953 287° West 467 537 28,000  Level Memphis Center
03:31PM 34.0522 -88.6425 288° West 462 532 28,000  Level Memphis Center
03:32PM 34.0878 -88.7922 286° West 462 532 28,000  Level Memphis Center
03:33PM 34.1144 -88.9397 282° West 456 525 28,000  Level Memphis Center
03:34PM 34.1433 -89.0897 283° West 456 525 28,000  Level Memphis Center
03:35PM 34.1739 -89.2550 283° West 464 534 28,000  Level Memphis Center
03:36PM 34.2044 -89.4053 284° West 469 540 28,000  Level Memphis Center
03:37PM 34.2347 -89.5583 283° West 469 540 28,000  Level Memphis Center
03:38PM 34.2608 -89.7114 282° West 469 540 28,000 -60 Level Memphis Center
03:39PM 34.2761 -89.8669 277° West 469 540 27,900 -480 Descending Memphis Center
03:40PM 34.2933 -90.0228 278° West 469 540 27,100 -960 Descending Memphis Center
03:41PM 34.3167 -90.1786 280° West 474 545 26,000 -1,020 Descending Memphis Center
03:42PM 34.3356 -90.3194 279° West 474 545 25,100 -900 Descending Memphis Center
03:43PM 34.3564 -90.4753 279° West 474 545 24,200 -840 Descending Memphis Center
03:44PM 34.3875 -90.6214 285° West 462 532 23,500 -1,200 Descending Memphis Center
03:45PM 34.4161 -90.7700 283° West 457 526 21,800 -2,220 Descending Memphis Center
03:46PM 34.4450 -90.9139 284° West 441 507 19,100 -2,520 Descending Memphis Center
03:47PM 34.4733 -91.0600 283° West 426 490 16,800 -2,820 Descending Memphis Center
03:48PM 34.4978 -91.1836 284° West 400 460 13,500 -3,360 Descending Memphis Center
03:48PM 34.5036 -91.2139 283° West 389 448 12,500 -2,580 Descending Memphis Center
03:49PM 34.5158 -91.2669 286° West 388 447 11,700 -2,040 Descending Memphis Center
03:49PM 34.5239 -91.3075 284° West 392 451 11,100 -1,500 Descending Memphis Center
03:50PM 34.5419 -91.3858 286° West 345 397 10,200 -1,140 Descending Memphis Center
03:50PM 34.5522 -91.4189 291° West 364 419 10,000 -1,020 Descending Memphis Center
03:51PM 34.5619 -91.4919 279° West 286 329 9,200 -1,440 Descending Memphis Center
03:52PM 34.5800 -91.5856 283° West 289 333 7,600 -1,680 Descending Memphis Center
03:52PM 34.5881 -91.6083 293° West 295 339 7,100 -1,620 Descending Memphis Center
03:53PM 34.6036 -91.7019 281° West 285 328 5,600 -1,140 Descending Memphis Center
03:54PM 34.6194 -91.7931 282° West 285 328 4,900 -600 Descending Memphis Center
03:55PM 34.6247 -91.8739 275° West 280 322 4,500 -360 Descending Memphis Center
03:55PM 34.6289 -91.8689 45° Northeast 280 322 4,600 -1,320 Climbing Memphis Center
03:56PM 34.6381 -91.9675 276° West 274 315 3,200 -1,320 Descending Memphis Center
03:56PM 34.6425 -91.9653 22° Northeast 274 315 3,300 -240 Climbing Memphis Center
03:57PM 34.6453 -92.0536 272° West 262 302 3,000 -300 Descending Memphis Center
03:57PM 34.6475 -92.0561 317° Northwest 274 315 3,000 -840 Level Memphis Center
03:58PM 34.6442 -92.1419 267° West 250 288 2,200 -720 Descending Memphis Center
03:58PM 34.6461 -92.1419 360° North 269 310 2,300 -420 Climbing Memphis Center
03:59PM 34.6431 -92.2150 267° West 208 239 1,800 -540 Descending Memphis Center
03:59PM 34.6450 -92.2175 313° West 252 290 1,800 -300 Level Memphis Center
04:00PM 34.6692 -92.2761 297° West 178 205 1,500 -240 Descending Memphis Center
04:00PM 34.6694 -92.2736 82° East 233 268 1,600 -600 Climbing Memphis Center
04:01PM 34.7028 -92.2694 North 152 175 900 -720 Descending Memphis Center